createdAt,value
2022-07-25T00:00:33.620Z,49.6
2022-07-25T00:01:33.666Z,49.6
2022-07-25T00:02:33.630Z,49.4
2022-07-25T00:03:33.616Z,49.9
2022-07-25T00:05:37.778Z,49.8
2022-07-25T00:06:33.622Z,49.7
2022-07-25T00:07:33.619Z,49.6
2022-07-25T00:08:33.649Z,49.3
2022-07-25T00:09:33.631Z,48.9
2022-07-25T00:10:33.623Z,49.3
2022-07-25T00:11:33.625Z,49.5
2022-07-25T00:12:33.620Z,48.8
2022-07-25T00:13:33.693Z,48.4
2022-07-25T00:14:33.624Z,48.8
2022-07-25T00:15:33.785Z,48.9
2022-07-25T00:16:33.704Z,48.6
2022-07-25T00:17:33.626Z,48.5
2022-07-25T00:18:33.627Z,49.3
2022-07-25T00:19:33.624Z,49.6
2022-07-25T00:20:33.618Z,48.8
2022-07-25T00:21:33.624Z,48.9
2022-07-25T00:22:33.629Z,48.8
2022-07-25T00:23:33.627Z,49.3
2022-07-25T00:24:33.628Z,49.8
2022-07-25T00:25:33.632Z,49.4
2022-07-25T00:26:39.476Z,49.4
2022-07-25T00:27:33.623Z,49.5
2022-07-25T00:28:33.634Z,49.3
2022-07-25T00:29:33.634Z,49.1
2022-07-25T00:30:33.643Z,48.9
2022-07-25T00:31:33.747Z,48.7
2022-07-25T00:32:33.631Z,49.4
2022-07-25T00:33:33.625Z,49.3
2022-07-25T00:34:33.639Z,49.6
2022-07-25T00:35:33.687Z,50.3
2022-07-25T00:36:33.625Z,49.1
2022-07-25T00:37:33.625Z,50.8
2022-07-25T00:38:33.630Z,51
2022-07-25T00:39:35.726Z,50.9
2022-07-25T00:40:33.630Z,50.6
2022-07-25T00:41:33.636Z,50.8
2022-07-25T00:42:33.632Z,50.6
2022-07-25T00:43:33.631Z,51
2022-07-25T00:44:33.638Z,51
2022-07-25T00:45:33.634Z,51
2022-07-25T00:46:33.684Z,51
2022-07-25T00:47:33.636Z,51.2
2022-07-25T00:48:33.714Z,51.5
2022-07-25T00:49:33.635Z,51.3
2022-07-25T00:50:33.629Z,51.5
2022-07-25T00:51:33.634Z,51.5
2022-07-25T00:52:33.626Z,51.3
2022-07-25T00:53:33.637Z,51.4
2022-07-25T00:54:33.630Z,50.9
2022-07-25T00:55:33.631Z,50.9
2022-07-25T00:56:33.635Z,50.9
2022-07-25T00:57:33.634Z,50.2
2022-07-25T00:58:33.633Z,50.4
2022-07-25T00:59:33.645Z,50.5
2022-07-25T01:00:33.642Z,50.8
2022-07-25T01:01:33.725Z,50.6
2022-07-25T01:02:33.785Z,50.5
2022-07-25T01:03:33.647Z,51.2
2022-07-25T01:04:27.619Z,50.9
2022-07-25T01:05:33.656Z,51.1
2022-07-25T01:06:33.653Z,51.2
2022-07-25T01:07:33.643Z,50.7
2022-07-25T01:08:33.649Z,51
2022-07-25T01:09:33.635Z,51.2
2022-07-25T01:10:33.642Z,51.1
2022-07-25T01:11:33.641Z,51.5
2022-07-25T01:12:33.649Z,51
2022-07-25T01:13:33.650Z,51.3
2022-07-25T01:14:33.645Z,51.2
2022-07-25T01:15:33.666Z,51
2022-07-25T01:16:33.642Z,51.4
2022-07-25T01:17:33.641Z,51.4
2022-07-25T01:18:33.643Z,51.4
2022-07-25T01:19:33.649Z,51.9
2022-07-25T01:20:33.671Z,52
2022-07-25T01:21:33.654Z,51.9
2022-07-25T01:22:33.678Z,51.6
2022-07-25T01:23:33.662Z,52
2022-07-25T01:24:33.677Z,51.8
2022-07-25T01:25:33.660Z,51.8
2022-07-25T01:26:33.644Z,51.7
2022-07-25T01:27:33.667Z,52.1
2022-07-25T01:28:33.660Z,52.7
2022-07-25T01:29:33.644Z,52.2
2022-07-25T01:30:33.645Z,52.3
2022-07-25T01:31:33.723Z,52.3
2022-07-25T01:32:33.642Z,52.1
2022-07-25T01:33:33.644Z,52.2
2022-07-25T01:34:33.649Z,52.2
2022-07-25T01:35:33.663Z,52.2
2022-07-25T01:36:33.654Z,52.2
2022-07-25T01:37:33.648Z,52.3
2022-07-25T01:38:33.653Z,52.1
2022-07-25T01:39:33.652Z,51.8
2022-07-25T01:40:33.642Z,51.7
2022-07-25T01:41:33.649Z,51.6
2022-07-25T01:42:33.644Z,51.9
2022-07-25T01:43:33.660Z,50.4
2022-07-25T01:44:33.652Z,51.1
2022-07-25T01:45:33.662Z,51.2
2022-07-25T01:46:33.748Z,51.3
2022-07-25T01:47:33.651Z,51.3
2022-07-25T01:48:33.767Z,50.8
2022-07-25T01:49:33.654Z,51.3
2022-07-25T01:50:33.663Z,50.8
2022-07-25T01:51:33.657Z,51.1
2022-07-25T01:52:33.655Z,51.1
2022-07-25T01:53:33.652Z,50.9
2022-07-25T01:54:33.659Z,51
2022-07-25T01:55:33.663Z,50.7
2022-07-25T01:56:33.659Z,50.8
2022-07-25T01:57:33.676Z,50.8
2022-07-25T01:58:33.658Z,50.8
2022-07-25T01:59:33.668Z,50.9
2022-07-25T02:00:33.658Z,50.7
2022-07-25T02:01:33.774Z,51
2022-07-25T02:02:33.656Z,51
2022-07-25T02:03:33.662Z,51.4
2022-07-25T02:04:33.725Z,51.2
2022-07-25T02:05:33.662Z,51.1
2022-07-25T02:06:33.661Z,50.7
2022-07-25T02:07:33.664Z,51.2
2022-07-25T02:08:33.669Z,50.4
2022-07-25T02:09:33.730Z,50.6
2022-07-25T02:10:33.667Z,50.5
2022-07-25T02:11:33.677Z,51.5
2022-07-25T02:12:33.667Z,51.7
2022-07-25T02:13:33.675Z,50.4
2022-07-25T02:14:33.656Z,50.3
2022-07-25T02:15:33.667Z,51.4
2022-07-25T02:16:33.734Z,51.6
2022-07-25T02:17:33.684Z,51.8
2022-07-25T02:18:33.663Z,51.9
2022-07-25T02:19:33.665Z,51.9
2022-07-25T02:20:33.666Z,51.9
2022-07-25T02:21:33.694Z,51.9
2022-07-25T02:22:33.666Z,51.8
2022-07-25T02:23:33.671Z,51.6
2022-07-25T02:24:33.669Z,51.8
2022-07-25T02:25:33.676Z,51.9
2022-07-25T02:26:33.664Z,51.9
2022-07-25T02:27:33.670Z,50.7
2022-07-25T02:28:33.668Z,51.5
2022-07-25T02:29:33.674Z,50.8
2022-07-25T02:30:33.708Z,51.6
2022-07-25T02:31:33.669Z,51.9
2022-07-25T02:32:33.666Z,52
2022-07-25T02:33:33.670Z,49.4
2022-07-25T02:34:33.667Z,51
2022-07-25T02:35:33.671Z,49.4
2022-07-25T02:36:33.668Z,49
2022-07-25T02:37:33.665Z,49.2
2022-07-25T02:38:33.686Z,50.1
2022-07-25T02:39:33.672Z,48.8
2022-07-25T02:40:33.669Z,48.2
2022-07-25T02:41:33.666Z,49.2
2022-07-25T02:42:33.672Z,47.5
2022-07-25T02:43:33.683Z,47.8
2022-07-25T02:44:33.670Z,47.9
2022-07-25T02:45:33.671Z,48
2022-07-25T02:46:33.754Z,47.5
2022-07-25T02:47:33.668Z,46.9
2022-07-25T02:48:33.780Z,47.2
2022-07-25T02:49:33.669Z,47.2
2022-07-25T02:50:33.681Z,47
2022-07-25T02:51:33.695Z,47.9
2022-07-25T02:54:33.673Z,47.3
2022-07-25T02:55:33.680Z,47.2
2022-07-25T02:56:33.672Z,47.2
2022-07-25T02:57:33.985Z,47.3
2022-07-25T02:58:33.677Z,47.1
2022-07-25T02:59:33.715Z,47.3
2022-07-25T03:00:33.675Z,47.5
2022-07-25T03:01:33.777Z,47.4
2022-07-25T03:02:33.683Z,47.2
2022-07-25T03:03:33.755Z,47.3
2022-07-25T03:04:33.823Z,47.3
2022-07-25T03:05:33.677Z,47.5
2022-07-25T03:06:33.673Z,47.5
2022-07-25T03:07:33.680Z,47.3
2022-07-25T03:08:33.679Z,47.3
2022-07-25T03:09:33.688Z,47.2
2022-07-25T03:10:33.677Z,47.4
2022-07-25T03:11:33.686Z,47.2
2022-07-25T03:12:33.680Z,47.3
2022-07-25T03:13:33.680Z,46.9
2022-07-25T03:14:33.676Z,47.3
2022-07-25T03:15:33.680Z,46.9
2022-07-25T03:16:33.753Z,47
2022-07-25T03:17:33.688Z,46.9
2022-07-25T03:18:33.683Z,46.9
2022-07-25T03:19:33.673Z,47
2022-07-25T03:20:33.700Z,46.9
2022-07-25T03:21:33.679Z,46.9
2022-07-25T03:22:33.679Z,47.3
2022-07-25T03:23:33.701Z,47
2022-07-25T03:24:33.682Z,47.1
2022-07-25T03:25:33.701Z,47.7
2022-07-25T03:26:33.689Z,47.4
2022-07-25T03:27:33.688Z,47
2022-07-25T03:28:33.698Z,47.2
2022-07-25T03:29:33.733Z,47.5
2022-07-25T03:30:33.677Z,47.5
2022-07-25T03:31:33.754Z,47.2
2022-07-25T03:32:33.683Z,47.2
2022-07-25T03:33:33.686Z,47.4
2022-07-25T03:34:33.708Z,47.3
2022-07-25T03:35:33.690Z,47.3
2022-07-25T03:36:33.691Z,47.4
2022-07-25T03:37:33.705Z,47.6
2022-07-25T03:38:33.693Z,47.4
2022-07-25T03:39:33.682Z,47.3
2022-07-25T03:40:33.679Z,47.4
2022-07-25T03:41:33.688Z,47.3
2022-07-25T03:42:35.328Z,47.1
2022-07-25T03:43:33.686Z,47
2022-07-25T03:44:33.691Z,46.9
2022-07-25T03:45:33.778Z,47.3
2022-07-25T03:46:33.693Z,46.9
2022-07-25T03:47:33.694Z,47
2022-07-25T03:48:33.732Z,47.1
2022-07-25T03:49:33.699Z,47
2022-07-25T03:50:33.699Z,47.3
2022-07-25T03:51:33.691Z,46.8
2022-07-25T03:52:33.699Z,46.8
2022-07-25T03:53:33.696Z,46.6
2022-07-25T03:54:33.703Z,46.6
2022-07-25T03:55:33.692Z,47
2022-07-25T03:56:33.694Z,47.1
2022-07-25T03:57:33.686Z,46.3
2022-07-25T03:58:33.689Z,46
2022-07-25T03:59:33.691Z,46.1
2022-07-25T04:00:33.688Z,46.1
2022-07-25T04:01:33.740Z,46.2
2022-07-25T04:02:33.757Z,46.1
2022-07-25T04:03:33.693Z,46.2
2022-07-25T04:04:33.691Z,45.9
2022-07-25T04:05:33.686Z,45.9
2022-07-25T04:06:33.710Z,46.2
2022-07-25T04:07:33.687Z,46.3
2022-07-25T04:08:33.692Z,45.9
2022-07-25T04:09:33.909Z,45.7
2022-07-25T04:10:33.691Z,45.6
2022-07-25T04:11:33.692Z,45.7
2022-07-25T04:12:33.711Z,45.8
2022-07-25T04:13:33.704Z,45.9
2022-07-25T04:14:33.714Z,45.7
2022-07-25T04:15:33.696Z,45.8
2022-07-25T04:16:33.725Z,45.8
2022-07-25T04:17:33.705Z,45.7
2022-07-25T04:18:33.702Z,45.9
2022-07-25T04:19:33.712Z,46.2
2022-07-25T04:20:33.697Z,46.2
2022-07-25T04:21:33.696Z,46.3
2022-07-25T04:22:33.704Z,46
2022-07-25T04:23:33.695Z,46
2022-07-25T04:24:33.698Z,46.3
2022-07-25T04:25:33.695Z,45.8
2022-07-25T04:26:33.705Z,46
2022-07-25T04:27:33.695Z,46
2022-07-25T04:28:33.719Z,45.8
2022-07-25T04:29:33.705Z,45.8
2022-07-25T04:30:33.702Z,46
2022-07-25T04:31:33.756Z,46
2022-07-25T04:32:33.707Z,45.9
2022-07-25T04:33:33.723Z,45.6
2022-07-25T04:34:33.781Z,45.8
2022-07-25T04:35:33.703Z,45.5
2022-07-25T04:36:33.706Z,45.5
2022-07-25T04:37:33.705Z,45.5
2022-07-25T04:38:33.726Z,45.4
2022-07-25T04:39:33.704Z,45.5
2022-07-25T04:40:33.703Z,45.3
2022-07-25T04:41:33.695Z,45.2
2022-07-25T04:42:33.714Z,45
2022-07-25T04:43:33.711Z,44.7
2022-07-25T04:44:33.723Z,44.6
2022-07-25T04:45:33.777Z,44.6
2022-07-25T04:46:33.709Z,44.8
2022-07-25T04:47:33.708Z,44.6
2022-07-25T04:48:33.764Z,44.7
2022-07-25T04:49:33.699Z,44.8
2022-07-25T04:51:33.719Z,44.6
2022-07-25T04:52:33.714Z,44.3
2022-07-25T04:53:33.714Z,44.3
2022-07-25T04:54:33.713Z,44.6
2022-07-25T04:55:33.710Z,44.3
2022-07-25T04:56:33.729Z,44.4
2022-07-25T04:57:33.713Z,44.4
2022-07-25T04:58:33.709Z,44.7
2022-07-25T04:59:33.719Z,44.3
2022-07-25T05:00:33.803Z,44.6
2022-07-25T05:01:33.816Z,44.4
2022-07-25T05:02:33.768Z,44.8
2022-07-25T05:03:33.711Z,44.6
2022-07-25T05:04:33.710Z,44.2
2022-07-25T05:05:33.716Z,44.5
2022-07-25T05:06:33.712Z,44.5
2022-07-25T05:07:33.707Z,44.2
2022-07-25T05:08:33.719Z,44.3
2022-07-25T05:09:33.750Z,44.1
2022-07-25T05:10:33.718Z,44
2022-07-25T05:11:33.711Z,44
2022-07-25T05:12:33.712Z,43.8
2022-07-25T05:13:33.716Z,44.1
2022-07-25T05:14:33.719Z,43.8
2022-07-25T05:15:33.742Z,43.4
2022-07-25T05:16:33.796Z,43.7
2022-07-25T05:17:33.717Z,43.3
2022-07-25T05:18:33.711Z,43.6
2022-07-25T05:19:33.729Z,43.3
2022-07-25T05:20:33.724Z,43.2
2022-07-25T05:21:33.719Z,43.2
2022-07-25T05:22:33.705Z,43.5
2022-07-25T05:23:33.715Z,43.2
2022-07-25T05:24:33.713Z,42.9
2022-07-25T05:25:33.728Z,42.8
2022-07-25T05:26:33.715Z,43
2022-07-25T05:27:33.717Z,43
2022-07-25T05:28:33.717Z,42.7
2022-07-25T05:29:33.724Z,42.3
2022-07-25T05:30:39.357Z,42.1
2022-07-25T05:31:33.804Z,41.9
2022-07-25T05:32:33.720Z,41.7
2022-07-25T05:33:33.712Z,42
2022-07-25T05:34:33.723Z,42
2022-07-25T05:35:33.727Z,42.1
2022-07-25T05:36:33.729Z,41.7
2022-07-25T05:37:33.721Z,41.8
2022-07-25T05:38:33.721Z,41.5
2022-07-25T05:39:33.721Z,41
2022-07-25T05:40:33.726Z,41.2
2022-07-25T05:41:33.719Z,40.8
2022-07-25T05:42:33.731Z,41.1
2022-07-25T05:43:33.731Z,40.9
2022-07-25T05:44:33.724Z,40.5
2022-07-25T05:45:33.720Z,40.5
2022-07-25T05:46:33.791Z,40.4
2022-07-25T05:47:33.729Z,40.6
2022-07-25T05:48:33.842Z,40.3
2022-07-25T05:49:33.722Z,40.4
2022-07-25T05:50:33.720Z,40.3
2022-07-25T05:51:33.729Z,40.5
2022-07-25T05:52:33.729Z,40.9
2022-07-25T05:53:33.743Z,40.5
2022-07-25T05:54:33.737Z,40.7
2022-07-25T05:55:33.726Z,40.6
2022-07-25T05:56:33.726Z,40.4
2022-07-25T05:57:33.734Z,40.5
2022-07-25T05:58:33.735Z,40.5
2022-07-25T05:59:33.733Z,40.5
2022-07-25T06:00:33.775Z,40.6
2022-07-25T06:01:33.762Z,40.6
2022-07-25T06:02:33.911Z,40.6
2022-07-25T06:03:33.735Z,40.6
2022-07-25T06:04:33.730Z,41
2022-07-25T06:05:33.744Z,40.9
2022-07-25T06:06:33.739Z,41
2022-07-25T06:07:33.729Z,41
2022-07-25T06:08:33.725Z,41
2022-07-25T06:09:33.739Z,40.8
2022-07-25T06:10:33.798Z,40.6
2022-07-25T06:11:33.726Z,40.7
2022-07-25T06:12:33.770Z,40.5
2022-07-25T06:13:33.738Z,40.6
2022-07-25T06:14:33.731Z,40.8
2022-07-25T06:15:33.756Z,41
2022-07-25T06:16:33.854Z,40.7
2022-07-25T06:17:33.737Z,40.3
2022-07-25T06:18:33.728Z,40.6
2022-07-25T06:19:33.733Z,40.3
2022-07-25T06:20:33.753Z,40.6
2022-07-25T06:21:33.749Z,40.4
2022-07-25T06:22:33.757Z,40.2
2022-07-25T06:23:33.739Z,40
2022-07-25T06:24:33.740Z,39.8
2022-07-25T06:25:33.734Z,40.1
2022-07-25T06:26:33.739Z,40.1
2022-07-25T06:27:33.763Z,40.1
2022-07-25T06:28:33.734Z,39.6
2022-07-25T06:29:33.749Z,39.2
2022-07-25T06:30:33.736Z,38.5
2022-07-25T06:31:33.841Z,37.9
2022-07-25T06:32:33.744Z,37.1
2022-07-25T06:33:33.753Z,36.5
2022-07-25T06:34:33.742Z,36.1
2022-07-25T06:35:33.745Z,35.1
2022-07-25T06:36:33.754Z,34.9
2022-07-25T06:37:33.769Z,34.7
2022-07-25T06:38:33.736Z,34.1
2022-07-25T06:39:33.746Z,33.6
2022-07-25T06:40:33.754Z,33.8
2022-07-25T06:41:33.740Z,33.6
2022-07-25T06:42:33.751Z,33.7
2022-07-25T06:43:33.751Z,33.5
2022-07-25T06:44:33.750Z,33.4
2022-07-25T06:45:33.745Z,32.9
2022-07-25T06:46:33.893Z,32.8
2022-07-25T06:47:35.997Z,32.3
2022-07-25T06:48:33.790Z,32.4
2022-07-25T06:49:33.755Z,32.6
2022-07-25T06:50:33.748Z,32.4
2022-07-25T06:51:33.754Z,31.9
2022-07-25T06:52:33.750Z,32.3
2022-07-25T06:53:33.751Z,32
2022-07-25T06:54:33.781Z,32.3
2022-07-25T06:55:33.762Z,32.3
2022-07-25T06:56:33.753Z,32.5
2022-07-25T06:57:33.749Z,32.7
2022-07-25T06:58:33.755Z,32.6
2022-07-25T06:59:33.759Z,32.8
2022-07-25T07:01:33.886Z,33.2
2022-07-25T07:02:33.744Z,34.4
2022-07-25T07:03:33.807Z,33.7
2022-07-25T07:04:33.755Z,33.8
2022-07-25T07:05:33.760Z,33.7
2022-07-25T07:06:33.755Z,34
2022-07-25T07:07:33.751Z,33.3
2022-07-25T07:08:33.770Z,33.3
2022-07-25T07:09:33.770Z,33.4
2022-07-25T07:10:33.777Z,33.3
2022-07-25T07:11:33.751Z,33.8
2022-07-25T07:12:33.766Z,33.3
2022-07-25T07:13:33.766Z,33.1
2022-07-25T07:14:33.778Z,32.8
2022-07-25T07:15:33.769Z,32.3
2022-07-25T07:16:33.941Z,32.4
2022-07-25T07:17:33.765Z,32.3
2022-07-25T07:18:33.755Z,32.1
2022-07-25T07:19:33.771Z,31.7
2022-07-25T07:20:33.775Z,31.7
2022-07-25T07:21:33.761Z,31.7
2022-07-25T07:22:33.755Z,31.5
2022-07-25T07:23:33.764Z,31.3
2022-07-25T07:24:33.776Z,31.5
2022-07-25T07:25:34.398Z,31.5
2022-07-25T07:26:33.830Z,31.4
2022-07-25T07:27:33.788Z,31.6
2022-07-25T07:28:33.758Z,31.9
2022-07-25T07:29:33.768Z,32.1
2022-07-25T07:31:05.666Z,31.8
2022-07-25T07:31:33.825Z,32.2
2022-07-25T07:32:33.767Z,31.6
2022-07-25T07:33:33.775Z,31.4
2022-07-25T07:34:33.769Z,30.7
2022-07-25T07:35:36.003Z,30.3
2022-07-25T07:36:33.774Z,29.4
2022-07-25T07:37:38.690Z,29.1
2022-07-25T07:38:33.769Z,28.4
2022-07-25T07:39:33.762Z,28.3
2022-07-25T07:40:33.769Z,28.4
2022-07-25T07:41:33.784Z,28.1
2022-07-25T07:42:33.774Z,27.9
2022-07-25T07:43:33.772Z,27.7
2022-07-25T07:44:33.770Z,27.4
2022-07-25T07:45:33.772Z,27.2
2022-07-25T07:46:33.939Z,26.7
2022-07-25T07:47:33.776Z,26.7
2022-07-25T07:48:33.833Z,26.5
2022-07-25T07:49:36.880Z,26
2022-07-25T07:50:33.797Z,26
2022-07-25T07:51:33.770Z,26.1
2022-07-25T07:52:33.778Z,25.9
2022-07-25T07:53:33.790Z,25.6
2022-07-25T07:54:33.777Z,25.6
2022-07-25T07:55:33.779Z,26
2022-07-25T07:56:33.781Z,26.2
2022-07-25T07:57:33.776Z,27.1
2022-07-25T07:58:33.808Z,27.4
2022-07-25T07:59:33.791Z,27.5
2022-07-25T08:00:33.785Z,28.1
2022-07-25T08:01:33.862Z,28.2
2022-07-25T08:02:33.814Z,28.6
2022-07-25T08:03:33.787Z,29
2022-07-25T08:04:33.780Z,29
2022-07-25T08:06:33.785Z,29.7
2022-07-25T08:07:33.787Z,30
2022-07-25T08:08:33.785Z,30.2
2022-07-25T08:09:33.786Z,30
2022-07-25T08:10:33.794Z,30.2
2022-07-25T08:11:33.780Z,30.1
2022-07-25T08:12:33.790Z,29.7
2022-07-25T08:13:33.789Z,29.7
2022-07-25T08:14:33.782Z,29.4
2022-07-25T08:15:33.797Z,29.2
2022-07-25T08:16:33.890Z,28.9
2022-07-25T08:17:33.788Z,29.1
2022-07-25T08:18:33.803Z,29.1
2022-07-25T08:19:33.816Z,29.2
2022-07-25T08:20:38.458Z,29
2022-07-25T08:21:33.785Z,28.9
2022-07-25T08:22:33.785Z,28.8
2022-07-25T08:23:33.801Z,29
2022-07-25T08:24:33.789Z,28.6
2022-07-25T08:26:33.791Z,28.2
2022-07-25T08:27:33.797Z,28.2
2022-07-25T08:28:33.791Z,27.9
2022-07-25T08:29:33.790Z,27.6
2022-07-25T08:30:33.810Z,27.2
2022-07-25T08:31:33.917Z,26.7
2022-07-25T08:32:33.841Z,26.5
2022-07-25T08:33:33.804Z,26.5
2022-07-25T08:34:33.794Z,26.8
2022-07-25T08:35:33.796Z,26.8
2022-07-25T08:36:34.921Z,27.2
2022-07-25T08:37:33.793Z,27.4
2022-07-25T08:38:33.806Z,27.5
2022-07-25T08:39:33.817Z,27.8
2022-07-25T08:40:33.798Z,27.6
2022-07-25T08:41:33.799Z,27.5
2022-07-25T08:42:33.806Z,27.4
2022-07-25T08:43:33.793Z,27.4
2022-07-25T08:44:33.799Z,27.2
2022-07-25T08:45:33.797Z,27.4
2022-07-25T08:46:33.856Z,27.2
2022-07-25T08:47:33.809Z,27.4
2022-07-25T08:48:33.852Z,27.3
2022-07-25T08:49:33.830Z,27.4
2022-07-25T08:50:33.832Z,27.6
2022-07-25T08:51:34.029Z,28
2022-07-25T08:52:33.806Z,28.2
2022-07-25T08:53:34.531Z,28.5
2022-07-25T08:55:33.811Z,29.5
2022-07-25T08:56:33.803Z,29.9
2022-07-25T08:57:33.829Z,30.1
2022-07-25T08:58:33.809Z,30.4
2022-07-25T08:59:33.808Z,30.1
2022-07-25T09:00:33.823Z,29.8
2022-07-25T09:01:35.150Z,29.3
2022-07-25T09:02:33.934Z,28.8
2022-07-25T09:03:33.809Z,28.8
2022-07-25T09:04:33.820Z,29.1
2022-07-25T09:05:33.807Z,29.6
2022-07-25T09:06:33.815Z,29.4
2022-07-25T09:07:33.845Z,29.1
2022-07-25T09:08:33.827Z,28.3
2022-07-25T09:09:33.816Z,27.8
2022-07-25T09:10:33.814Z,26.6
2022-07-25T09:11:33.812Z,26.1
2022-07-25T09:12:33.806Z,25.4
2022-07-25T09:13:33.838Z,24.6
2022-07-25T09:14:33.825Z,24.1
2022-07-25T09:15:33.876Z,23.5
2022-07-25T09:16:33.815Z,23
2022-07-25T09:17:33.874Z,22.6
2022-07-25T09:18:33.831Z,22.2
2022-07-25T09:19:33.816Z,21.8
2022-07-25T09:20:33.818Z,21.9
2022-07-25T09:21:33.847Z,21.7
2022-07-25T09:22:33.831Z,21.4
2022-07-25T09:23:33.824Z,21.5
2022-07-25T09:24:33.825Z,21.5
2022-07-25T09:26:33.817Z,21.5
2022-07-25T09:27:33.818Z,21.4
2022-07-25T09:28:33.818Z,21.3
2022-07-25T09:29:33.848Z,21
2022-07-25T09:30:33.823Z,21.1
2022-07-25T09:31:33.893Z,21.3
2022-07-25T09:32:33.847Z,21.3
2022-07-25T09:33:33.845Z,21.7
2022-07-25T09:34:33.834Z,22.2
2022-07-25T09:35:33.821Z,22.6
2022-07-25T09:36:33.818Z,22.9
2022-07-25T09:37:33.830Z,23.1
2022-07-25T09:38:33.826Z,22.7
2022-07-25T09:39:33.824Z,22.8
2022-07-25T09:40:33.852Z,22.5
2022-07-25T09:41:33.823Z,22.5
2022-07-25T09:42:33.824Z,22.2
2022-07-25T09:43:33.828Z,22.4
2022-07-25T09:44:33.852Z,22.3
2022-07-25T09:45:33.825Z,22.3
2022-07-25T09:46:33.958Z,22
2022-07-25T09:47:33.835Z,21.5
2022-07-25T09:48:33.912Z,21.2
2022-07-25T09:49:33.829Z,21.1
2022-07-25T09:50:33.833Z,20.7
2022-07-25T09:51:33.847Z,20.7
2022-07-25T09:52:33.920Z,21.1
2022-07-25T09:53:33.839Z,21.2
2022-07-25T09:54:33.845Z,21.7
2022-07-25T09:55:33.837Z,22
2022-07-25T09:56:33.838Z,22.2
2022-07-25T09:57:33.831Z,22.1
2022-07-25T09:58:33.839Z,22.1
2022-07-25T09:59:33.839Z,22.1
2022-07-25T10:00:33.833Z,22.1
2022-07-25T10:01:33.972Z,22.4
2022-07-25T10:02:33.899Z,22.8
2022-07-25T10:03:33.836Z,23.3
2022-07-25T10:04:33.838Z,23.5
2022-07-25T10:05:33.846Z,23.9
2022-07-25T10:06:33.841Z,24.4
2022-07-25T10:07:33.843Z,25
2022-07-25T10:08:33.843Z,25.4
2022-07-25T10:09:33.837Z,25.9
2022-07-25T10:10:33.847Z,25.9
2022-07-25T10:11:33.840Z,26.9
2022-07-25T10:12:33.843Z,27.2
2022-07-25T10:13:33.843Z,27.5
2022-07-25T10:14:33.853Z,27.5
2022-07-25T10:15:33.847Z,28.3
2022-07-25T10:16:33.942Z,28.3
2022-07-25T10:17:34.088Z,28.5
2022-07-25T10:18:33.846Z,28.7
2022-07-25T10:19:33.842Z,28.9
2022-07-25T10:20:33.849Z,28.5
2022-07-25T10:21:33.866Z,29
2022-07-25T10:22:54.696Z,28.4
2022-07-25T10:23:33.845Z,28.4
2022-07-25T10:24:33.846Z,28.3
2022-07-25T10:25:33.842Z,27.8
2022-07-25T10:26:33.852Z,27.9
2022-07-25T10:27:33.862Z,27.8
2022-07-25T10:28:33.855Z,28
2022-07-25T10:29:33.850Z,28.3
2022-07-25T10:30:33.919Z,28.6
2022-07-25T10:31:33.856Z,28.7
2022-07-25T10:32:33.854Z,28.9
2022-07-25T10:33:33.861Z,29.1
2022-07-25T10:34:33.904Z,28.8
2022-07-25T10:35:33.850Z,28.3
2022-07-25T10:36:33.860Z,27.3
2022-07-25T10:37:33.861Z,26.9
2022-07-25T10:38:33.860Z,26.4
2022-07-25T10:39:33.849Z,25.4
2022-07-25T10:40:33.850Z,24.5
2022-07-25T10:41:33.858Z,23.9
2022-07-25T10:42:33.869Z,23
2022-07-25T10:43:33.879Z,21.9
2022-07-25T10:44:33.867Z,22.1
2022-07-25T10:45:38.098Z,21.6
2022-07-25T10:46:33.950Z,22.2
2022-07-25T10:47:33.875Z,21.8
2022-07-25T10:48:33.957Z,22.2
2022-07-25T10:49:33.918Z,21.2
2022-07-25T10:50:54.422Z,21.1
2022-07-25T10:51:37.091Z,21
2022-07-25T10:52:33.872Z,20.2
2022-07-25T10:53:33.861Z,19.9
2022-07-25T10:54:33.868Z,19.5
2022-07-25T10:55:33.868Z,19
2022-07-25T10:56:33.866Z,19.1
2022-07-25T10:57:33.859Z,18.4
2022-07-25T10:58:33.889Z,18.7
2022-07-25T10:59:33.873Z,18.2
2022-07-25T11:00:33.877Z,18.1
2022-07-25T11:01:34.017Z,17.7
2022-07-25T11:02:33.957Z,17.4
2022-07-25T11:03:33.871Z,17.2
2022-07-25T11:04:33.867Z,17
2022-07-25T11:05:33.871Z,17
2022-07-25T11:06:33.868Z,16.8
2022-07-25T11:07:33.878Z,16.6
2022-07-25T11:08:33.897Z,16.6
2022-07-25T11:09:33.881Z,16.4
2022-07-25T11:10:33.880Z,16.6
2022-07-25T11:11:33.877Z,16.4
2022-07-25T11:12:33.873Z,16.5
2022-07-25T11:13:33.873Z,16.2
2022-07-25T11:14:33.873Z,16.2
2022-07-25T11:15:33.871Z,16
2022-07-25T11:16:33.957Z,16
2022-07-25T11:17:33.881Z,16
2022-07-25T11:18:33.885Z,16
2022-07-25T11:19:33.879Z,16.1
2022-07-25T11:20:33.878Z,16.4
2022-07-25T11:21:34.495Z,17.1
2022-07-25T11:22:33.887Z,17
2022-07-25T11:23:33.895Z,17.9
2022-07-25T11:24:33.887Z,18.8
2022-07-25T11:25:33.878Z,19.8
2022-07-25T11:26:33.883Z,19.9
2022-07-25T11:27:33.883Z,19.6
2022-07-25T11:28:33.881Z,19.7
2022-07-25T11:29:33.891Z,20.1
2022-07-25T11:30:33.882Z,20.2
2022-07-25T11:31:33.931Z,19.8
2022-07-25T11:32:33.892Z,19.5
2022-07-25T11:33:38.421Z,19.3
2022-07-25T11:34:33.887Z,19.1
2022-07-25T11:35:33.916Z,18.7
2022-07-25T11:36:33.887Z,18.4
2022-07-25T11:37:33.897Z,18.8
2022-07-25T11:38:34.128Z,18.9
2022-07-25T11:39:33.895Z,18.6
2022-07-25T11:40:33.891Z,18.7
2022-07-25T11:41:33.892Z,19.2
2022-07-25T11:42:33.900Z,19.1
2022-07-25T11:43:33.886Z,19.2
2022-07-25T11:44:33.893Z,18.9
2022-07-25T11:45:34.066Z,18.7
2022-07-25T11:46:33.902Z,18.8
2022-07-25T11:47:33.957Z,18.8
2022-07-25T11:48:33.972Z,18.6
2022-07-25T11:49:33.894Z,18.9
2022-07-25T11:50:33.907Z,19.3
2022-07-25T11:51:33.894Z,19.5
2022-07-25T11:52:33.891Z,19.9
2022-07-25T11:53:33.903Z,21
2022-07-25T11:54:33.895Z,21.8
2022-07-25T11:55:33.908Z,21.4
2022-07-25T11:56:42.381Z,22.9
2022-07-25T11:57:33.905Z,23.2
2022-07-25T11:58:33.908Z,23.4
2022-07-25T11:59:33.901Z,23.2
2022-07-25T12:00:33.921Z,23.9
2022-07-25T12:01:33.903Z,24.2
2022-07-25T12:02:34.108Z,25.5
2022-07-25T12:03:34.124Z,25.8
2022-07-25T12:04:33.914Z,26.3
2022-07-25T12:05:33.909Z,26.7
2022-07-25T12:06:33.918Z,26.4
2022-07-25T12:07:33.914Z,26
2022-07-25T12:08:33.907Z,27.1
2022-07-25T12:09:33.907Z,27.2
2022-07-25T12:10:33.906Z,26.6
2022-07-25T12:11:33.913Z,26.6
2022-07-25T12:12:33.908Z,28
2022-07-25T12:13:33.918Z,27.6
2022-07-25T12:15:33.905Z,28
2022-07-25T12:16:33.980Z,28.6
2022-07-25T12:17:33.906Z,28.5
2022-07-25T12:18:33.905Z,28.1
2022-07-25T12:19:33.916Z,29.3
2022-07-25T12:20:33.901Z,28.9
2022-07-25T12:21:33.919Z,29.3
2022-07-25T12:22:33.926Z,29.4
2022-07-25T12:23:33.909Z,29.4
2022-07-25T12:24:33.917Z,29.7
2022-07-25T12:25:33.914Z,29.8
2022-07-25T12:26:33.923Z,30
2022-07-25T12:27:33.914Z,30.1
2022-07-25T12:28:33.914Z,30
2022-07-25T12:29:33.940Z,30.1
2022-07-25T12:30:33.976Z,30.2
2022-07-25T12:31:34.040Z,30.4
2022-07-25T12:32:33.917Z,30.6
2022-07-25T12:33:33.926Z,30.7
2022-07-25T12:34:33.928Z,30.5
2022-07-25T12:36:33.922Z,30.1
2022-07-25T12:38:33.920Z,30
2022-07-25T12:39:33.925Z,30.1
2022-07-25T12:40:33.923Z,30
2022-07-25T12:41:33.928Z,30.4
2022-07-25T12:42:33.918Z,30.3
2022-07-25T12:43:33.936Z,30.6
2022-07-25T12:44:33.925Z,30.5
2022-07-25T12:45:34.024Z,30.6
2022-07-25T12:46:33.924Z,30.9
2022-07-25T12:47:33.924Z,31.2
2022-07-25T12:48:34.013Z,31.5
2022-07-25T12:49:33.928Z,31.8
2022-07-25T12:50:33.940Z,32
2022-07-25T12:52:33.927Z,33
2022-07-25T12:53:35.293Z,32.9
2022-07-25T12:54:33.932Z,33.2
2022-07-25T12:55:33.941Z,33.2
2022-07-25T12:57:33.934Z,33
2022-07-25T12:58:33.936Z,33
2022-07-25T12:59:33.932Z,33.5
2022-07-25T13:00:33.941Z,34.1
2022-07-25T13:01:33.977Z,34.2
2022-07-25T13:02:33.999Z,34.7
2022-07-25T13:03:33.937Z,34.7
2022-07-25T13:04:33.933Z,34.8
2022-07-25T13:05:33.966Z,34.8
2022-07-25T13:06:38.515Z,34.7
2022-07-25T13:07:33.942Z,35.1
2022-07-25T13:08:33.942Z,35
2022-07-25T13:09:33.942Z,35.1
2022-07-25T13:10:33.934Z,34.9
2022-07-25T13:11:33.930Z,35.1
2022-07-25T13:12:33.937Z,34.5
2022-07-25T13:13:33.947Z,35.1
2022-07-25T13:14:33.937Z,34.4
2022-07-25T13:15:33.946Z,34.7
2022-07-25T13:16:33.989Z,34.5
2022-07-25T13:17:33.951Z,34.8
2022-07-25T13:18:33.942Z,34.6
2022-07-25T13:19:33.945Z,34.8
2022-07-25T13:20:33.950Z,34.5
2022-07-25T13:21:33.938Z,34.5
2022-07-25T13:22:33.958Z,34.4
2022-07-25T13:23:33.937Z,34.5
2022-07-25T13:24:34.335Z,34.5
2022-07-25T13:25:33.977Z,34.6
2022-07-25T13:26:33.951Z,34.6
2022-07-25T13:27:33.944Z,34.4
2022-07-25T13:28:33.938Z,34.3
2022-07-25T13:29:33.938Z,34.2
2022-07-25T13:31:34.052Z,34.4
2022-07-25T13:32:33.947Z,34.2
2022-07-25T13:33:33.947Z,34.1
2022-07-25T13:34:33.949Z,33.8
2022-07-25T13:35:38.705Z,34.2
2022-07-25T13:36:33.946Z,33.9
2022-07-25T13:37:33.958Z,33.9
2022-07-25T13:38:33.949Z,33.7
2022-07-25T13:39:33.957Z,33.7